Time;durP1;ratioP1;P1;durP2;ratioP2;P2;SDS_P1;SDS_P2;PMS_P1;PMS_P2;Temp;Humidity;BMP_temperature;BMP_pressure;BME280_temperature;BME280_humidity;BME280_pressure;Samples;Min_cycle;Max_cycle;Signal;HPM_P1;HPM_P2
2021/01/25 00:02:24;;;;;;;3.50;2.50;;;2.60;99.90;;;;;;5071436;28;20286;-67
2021/01/25 00:04:49;;;;;;;5.43;3.30;;;2.50;99.90;;;;;;5075330;28;20702;-67
2021/01/25 00:07:15;;;;;;;6.00;3.70;;;2.50;99.90;;;;;;5061459;28;20682;-68
2021/01/25 00:09:40;;;;;;;5.97;3.80;;;2.60;99.90;;;;;;5079257;28;20712;-67
2021/01/25 00:12:06;;;;;;;6.67;3.87;;;2.50;99.90;;;;;;5076571;28;20244;-67
2021/01/25 00:14:32;;;;;;;5.40;3.80;;;2.50;99.90;;;;;;5073386;28;20219;-67
2021/01/25 00:16:58;;;;;;;9.43;3.33;;;2.50;99.90;;;;;;5097014;27;20231;-67
2021/01/25 00:19:23;;;;;;;4.37;3.67;;;2.50;99.90;;;;;;5072838;28;20226;-68
2021/01/25 00:21:49;;;;;;;5.40;3.80;;;2.50;99.90;;;;;;5093820;27;20213;-67
2021/01/25 00:24:15;;;;;;;5.40;3.30;;;2.40;99.90;;;;;;5076553;28;20468;-67
2021/01/25 00:26:41;;;;;;;5.10;3.90;;;2.40;99.90;;;;;;5089783;28;20256;-67
2021/01/25 00:29:08;;;;;;;5.60;3.57;;;2.40;99.90;;;;;;5074206;27;20482;-67
2021/01/25 00:31:34;;;;;;;4.07;3.73;;;2.40;99.90;;;;;;5092121;28;20226;-67
2021/01/25 00:33:59;;;;;;;5.30;4.00;;;2.40;99.90;;;;;;5096399;27;20463;-69
2021/01/25 00:36:25;;;;;;;4.73;3.80;;;2.40;99.90;;;;;;5093094;28;20249;-69
2021/01/25 00:38:51;;;;;;;5.80;4.80;;;2.40;99.90;;;;;;5069208;28;20649;-68
2021/01/25 00:41:17;;;;;;;7.13;4.73;;;2.40;99.90;;;;;;5071789;28;20263;-68
2021/01/25 00:43:43;;;;;;;5.57;4.10;;;2.40;99.90;;;;;;5057543;28;20213;-68
2021/01/25 00:46:09;;;;;;;6.97;4.30;;;2.40;99.90;;;;;;5062875;27;20241;-68
2021/01/25 00:48:35;;;;;;;3.80;3.20;;;2.40;99.90;;;;;;5081480;27;20451;-69
2021/01/25 00:51:01;;;;;;;5.40;4.50;;;2.50;99.90;;;;;;5102540;27;20473;-68
2021/01/25 00:53:27;;;;;;;7.00;4.43;;;2.50;99.90;;;;;;5060857;28;20242;-68
2021/01/25 00:55:53;;;;;;;5.40;3.80;;;2.50;99.90;;;;;;5089886;28;20445;-68
2021/01/25 00:58:19;;;;;;;8.60;4.70;;;2.50;99.90;;;;;;5074648;28;20563;-68
2021/01/25 01:00:45;;;;;;;7.20;4.13;;;2.60;99.90;;;;;;5075258;28;20516;-68
2021/01/25 01:03:11;;;;;;;6.73;4.47;;;2.60;99.90;;;;;;5090468;28;20321;-67
2021/01/25 01:05:36;;;;;;;10.17;5.30;;;2.60;99.90;;;;;;5079330;28;20207;-68
2021/01/25 01:08:02;;;;;;;6.27;4.67;;;2.60;99.90;;;;;;5074736;28;20215;-68
2021/01/25 01:10:28;;;;;;;6.63;4.27;;;2.60;99.90;;;;;;5075550;28;20213;-68
2021/01/25 01:12:54;;;;;;;4.90;3.73;;;2.60;99.90;;;;;;5060281;28;20458;-67
2021/01/25 01:15:20;;;;;;;4.57;3.93;;;2.60;99.90;;;;;;5081827;28;20449;-68
2021/01/25 01:17:45;;;;;;;9.23;4.40;;;2.60;99.90;;;;;;5072039;28;20226;-68
2021/01/25 01:20:11;;;;;;;7.20;4.10;;;2.70;99.90;;;;;;5055266;28;20710;-67
2021/01/25 01:22:37;;;;;;;5.87;3.90;;;2.70;99.90;;;;;;5091031;28;20210;-67
2021/01/25 01:25:08;;;;;;;5.83;3.83;;;2.70;99.90;;;;;;5100090;28;20460;-67
2021/01/25 01:27:33;;;;;;;7.23;4.17;;;2.70;99.90;;;;;;5109172;28;20224;-69
2021/01/25 01:29:59;;;;;;;9.20;5.70;;;2.70;99.90;;;;;;5090355;28;20448;-66
2021/01/25 01:32:25;;;;;;;6.47;4.40;;;2.70;99.90;;;;;;5075293;28;20307;-66
2021/01/25 01:34:50;;;;;;;7.60;5.20;;;2.70;99.90;;;;;;5075601;28;20371;-66
2021/01/25 01:37:16;;;;;;;5.87;4.20;;;2.70;99.90;;;;;;5069592;28;20712;-67
2021/01/25 01:39:42;;;;;;;5.20;4.43;;;2.70;99.90;;;;;;5110528;28;20217;-67
2021/01/25 01:42:15;;;;;;;6.03;4.07;;;2.70;99.90;;;;;;5089875;27;20225;-67
2021/01/25 01:44:40;;;;;;;6.10;5.00;;;2.70;99.90;;;;;;5116666;27;20232;-67
2021/01/25 01:47:06;;;;;;;4.60;4.10;;;2.70;99.90;;;;;;5113955;27;20558;-69
2021/01/25 01:49:33;;;;;;;9.47;4.80;;;2.70;99.90;;;;;;5101860;28;20301;-70
2021/01/25 01:51:59;;;;;;;5.30;4.40;;;2.70;99.90;;;;;;5102115;28;20237;-70
2021/01/25 01:54:25;;;;;;;6.13;4.53;;;2.80;99.90;;;;;;5085297;28;20452;-68
2021/01/25 01:56:51;;;;;;;4.83;4.27;;;2.80;99.90;;;;;;5083331;28;20245;-68
2021/01/25 01:59:17;;;;;;;4.47;4.07;;;2.80;99.90;;;;;;5091799;28;20535;-68
2021/01/25 02:01:43;;;;;;;5.33;3.73;;;2.80;99.90;;;;;;5107194;28;20482;-68
2021/01/25 02:04:10;;;;;;;7.30;3.60;;;2.80;99.90;;;;;;5107264;28;20224;-69
2021/01/25 02:06:36;;;;;;;5.53;4.43;;;2.80;99.90;;;;;;5075534;28;20300;-70
2021/01/25 02:09:04;;;;;;;6.20;4.30;;;2.70;99.90;;;;;;5105299;27;20497;-69
2021/01/25 02:11:32;;;;;;;4.37;3.97;;;2.70;99.90;;;;;;5083564;28;20214;-70
2021/01/25 02:13:59;;;;;;;7.87;4.37;;;2.70;99.90;;;;;;5079707;28;20441;-68
2021/01/25 02:16:25;;;;;;;5.20;3.80;;;2.70;99.90;;;;;;5097754;28;20485;-69
2021/01/25 02:18:51;;;;;;;9.83;3.60;;;2.70;99.90;;;;;;5065054;27;20470;-69
2021/01/25 02:21:17;;;;;;;5.40;4.27;;;2.70;99.90;;;;;;5111517;28;20313;-69
2021/01/25 02:24:01;;;;;;;13.00;4.20;;;2.70;99.90;;;;;;5084325;27;20221;-68
2021/01/25 02:26:54;;;;;;;3.80;3.20;;;2.70;99.90;;;;;;5104805;27;20475;-69
2021/01/25 02:29:20;;;;;;;4.47;3.67;;;2.80;99.90;;;;;;5083894;28;20472;-71
2021/01/25 02:31:46;;;;;;;4.50;3.70;;;2.80;99.90;;;;;;5094577;28;20487;-69
2021/01/25 02:34:13;;;;;;;6.07;4.73;;;2.80;99.90;;;;;;5118837;28;20452;-68
2021/01/25 02:36:40;;;;;;;4.87;3.90;;;2.70;99.90;;;;;;5067625;28;20510;-70
2021/01/25 02:39:06;;;;;;;4.83;3.80;;;2.70;99.90;;;;;;5100842;27;20460;-68
2021/01/25 02:41:32;;;;;;;6.23;3.90;;;2.70;99.90;;;;;;5086151;28;20881;-70
2021/01/25 02:43:59;;;;;;;5.70;3.93;;;2.80;99.90;;;;;;5117197;28;20459;-68
2021/01/25 02:46:26;;;;;;;7.03;4.30;;;2.80;99.90;;;;;;5085145;28;20264;-69
2021/01/25 02:48:52;;;;;;;5.50;4.67;;;2.80;99.90;;;;;;5068740;28;20436;-69
2021/01/25 02:51:18;;;;;;;3.90;3.43;;;2.80;99.90;;;;;;5112350;28;20488;-68
2021/01/25 02:53:43;;;;;;;5.83;4.20;;;2.80;99.90;;;;;;5082140;27;20225;-67
2021/01/25 02:56:11;;;;;;;5.57;4.60;;;2.80;99.90;;;;;;5111755;27;20454;-67
2021/01/25 02:58:37;;;;;;;5.90;3.80;;;2.80;99.90;;;;;;5097255;28;20683;-69
2021/01/25 03:01:03;;;;;;;5.37;3.60;;;2.80;99.90;;;;;;5101937;28;20475;-70
2021/01/25 03:03:31;;;;;;;6.87;4.47;;;2.80;99.90;;;;;;5104687;28;20222;-69
2021/01/25 03:05:57;;;;;;;8.43;4.90;;;2.80;99.90;;;;;;5100410;28;20523;-70
2021/01/25 03:08:27;;;;;;;6.53;4.97;;;2.80;99.90;;;;;;5083772;28;20459;-69
2021/01/25 03:10:54;;;;;;;6.00;3.97;;;2.80;99.90;;;;;;5098790;28;20474;-69
2021/01/25 03:13:28;;;;;;;4.73;3.67;;;2.80;99.90;;;;;;5066786;28;20490;-68
2021/01/25 03:15:56;;;;;;;4.07;3.23;;;2.80;99.90;;;;;;5066224;28;20584;-70
2021/01/25 03:18:26;;;;;;;6.57;4.37;;;2.80;99.90;;;;;;5076362;28;20493;-69
2021/01/25 03:20:53;;;;;;;4.60;4.07;;;2.80;99.90;;;;;;5107036;28;20475;-70
2021/01/25 03:23:19;;;;;;;4.77;4.00;;;2.80;99.90;;;;;;5074974;28;20452;-68
2021/01/25 03:25:46;;;;;;;4.27;3.50;;;2.80;99.90;;;;;;5077439;28;20452;-70
2021/01/25 03:28:12;;;;;;;8.50;5.70;;;2.80;99.90;;;;;;5045159;28;20242;-69
2021/01/25 03:30:38;;;;;;;7.80;4.23;;;2.80;99.90;;;;;;5103847;27;20541;-67
2021/01/25 03:33:04;;;;;;;6.40;4.03;;;2.80;99.90;;;;;;5077661;28;20491;-68
2021/01/25 03:35:30;;;;;;;7.97;5.20;;;2.80;99.90;;;;;;5061999;28;20234;-68
2021/01/25 03:37:58;;;;;;;6.87;4.30;;;2.90;99.90;;;;;;5076004;28;20543;-68
2021/01/25 03:40:23;;;;;;;5.67;4.77;;;2.80;99.90;;;;;;5069032;28;20210;-69
2021/01/25 03:42:49;;;;;;;6.97;3.90;;;2.90;99.90;;;;;;5093848;28;20451;-68
2021/01/25 03:45:15;;;;;;;6.33;3.77;;;2.90;99.90;;;;;;5094297;28;20218;-68
2021/01/25 03:47:41;;;;;;;7.67;4.10;;;2.90;99.90;;;;;;5103223;28;20218;-67
2021/01/25 03:50:07;;;;;;;6.40;4.80;;;2.90;99.90;;;;;;5091869;28;20240;-67
2021/01/25 03:52:33;;;;;;;5.90;4.20;;;2.80;99.90;;;;;;5106409;28;20620;-69
2021/01/25 03:54:59;;;;;;;7.17;4.57;;;2.90;99.90;;;;;;5075582;28;20467;-68
2021/01/25 03:57:24;;;;;;;4.57;3.67;;;2.90;99.90;;;;;;5086260;28;20211;-69
2021/01/25 03:59:50;;;;;;;7.87;4.00;;;2.80;99.90;;;;;;5123584;27;20225;-68
2021/01/25 04:02:16;;;;;;;8.63;4.17;;;2.80;99.90;;;;;;5096219;27;20229;-68
2021/01/25 04:04:42;;;;;;;5.73;3.80;;;2.90;99.90;;;;;;5075404;27;20252;-67
2021/01/25 04:07:08;;;;;;;9.50;4.77;;;2.80;99.90;;;;;;5094366;27;20318;-68
2021/01/25 04:09:34;;;;;;;8.67;4.57;;;2.80;99.90;;;;;;5090197;27;20535;-69
2021/01/25 04:12:00;;;;;;;6.80;4.07;;;2.80;99.90;;;;;;5093027;28;20490;-68
2021/01/25 04:14:26;;;;;;;6.27;4.60;;;2.80;99.90;;;;;;5092023;28;20629;-68
2021/01/25 04:16:51;;;;;;;9.73;4.60;;;2.80;99.90;;;;;;5085824;28;20219;-69
2021/01/25 04:19:17;;;;;;;6.23;4.53;;;2.80;99.90;;;;;;5039661;28;20222;-69
2021/01/25 04:21:43;;;;;;;7.33;5.00;;;2.80;99.90;;;;;;5055638;28;20309;-68
2021/01/25 04:24:08;;;;;;;7.40;5.10;;;2.80;99.90;;;;;;5058021;28;20248;-67
2021/01/25 04:26:41;;;;;;;6.57;4.23;;;2.80;99.90;;;;;;5121777;27;21048;-68
2021/01/25 04:29:16;;;;;;;5.53;4.70;;;2.80;99.90;;;;;;5092064;28;20485;-69
2021/01/25 04:31:42;;;;;;;7.67;4.93;;;2.80;99.90;;;;;;5107979;27;20435;-68
2021/01/25 04:34:08;;;;;;;7.10;4.07;;;2.80;99.90;;;;;;5076639;28;20894;-69
2021/01/25 04:36:33;;;;;;;5.20;4.43;;;2.80;99.90;;;;;;5126667;27;20222;-69
2021/01/25 04:39:00;;;;;;;7.50;5.10;;;2.80;99.90;;;;;;5090225;28;20460;-69
2021/01/25 04:41:26;;;;;;;6.90;4.20;;;2.80;99.90;;;;;;5107656;27;20224;-69
2021/01/25 04:43:54;;;;;;;7.10;5.03;;;2.80;99.90;;;;;;5088494;28;20443;-69
2021/01/25 04:46:22;;;;;;;4.90;4.40;;;2.80;99.90;;;;;;5092919;28;20888;-69
2021/01/25 04:48:50;;;;;;;7.43;5.30;;;2.80;99.90;;;;;;5125245;27;20793;-69
2021/01/25 04:51:16;;;;;;;6.80;4.90;;;2.80;99.90;;;;;;5126382;28;20799;-68
2021/01/25 04:53:43;;;;;;;5.40;4.10;;;2.80;99.90;;;;;;5109225;27;20453;-69
2021/01/25 04:56:10;;;;;;;7.90;5.70;;;2.80;99.90;;;;;;5124719;27;20210;-69
2021/01/25 04:58:37;;;;;;;7.07;5.77;;;2.80;99.90;;;;;;5105626;27;20976;-69
2021/01/25 05:01:03;;;;;;;11.50;5.50;;;2.80;99.90;;;;;;5097879;28;20454;-68
2021/01/25 05:03:29;;;;;;;9.27;5.83;;;2.80;99.90;;;;;;5118842;27;20541;-69
2021/01/25 05:05:56;;;;;;;6.27;4.63;;;2.80;99.90;;;;;;5108514;27;20510;-68
2021/01/25 05:08:21;;;;;;;8.67;5.37;;;2.80;99.90;;;;;;5126120;27;20458;-68
2021/01/25 05:10:47;;;;;;;5.47;4.43;;;2.80;99.90;;;;;;5119832;27;20458;-69
2021/01/25 05:13:24;;;;;;;6.70;5.30;;;2.80;99.90;;;;;;5126630;27;20509;-68
2021/01/25 05:15:52;;;;;;;8.10;5.10;;;2.80;99.90;;;;;;5106859;27;20466;-69
2021/01/25 05:18:23;;;;;;;6.83;4.70;;;2.80;99.90;;;;;;5107895;28;20457;-69
2021/01/25 05:20:53;;;;;;;9.67;5.27;;;2.80;99.90;;;;;;5127096;27;20852;-69
2021/01/25 05:23:19;;;;;;;6.97;4.70;;;2.80;99.90;;;;;;5125362;27;20455;-69
2021/01/25 05:25:45;;;;;;;7.00;4.93;;;2.80;99.90;;;;;;5124745;27;20471;-69
2021/01/25 05:28:19;;;;;;;9.07;4.33;;;2.80;99.90;;;;;;5122942;27;20469;-69
2021/01/25 05:30:46;;;;;;;9.00;5.33;;;2.80;99.90;;;;;;5087346;27;20449;-68
2021/01/25 05:33:12;;;;;;;8.03;5.50;;;2.80;99.90;;;;;;5125550;27;20443;-69
2021/01/25 05:35:38;;;;;;;7.27;4.87;;;2.80;99.90;;;;;;5125921;27;20484;-69
2021/01/25 05:38:08;;;;;;;7.83;5.60;;;2.80;99.90;;;;;;5112353;27;20443;-69
2021/01/25 05:40:37;;;;;;;7.23;4.73;;;2.80;99.90;;;;;;5094865;28;20460;-68
2021/01/25 05:43:16;;;;;;;5.87;4.50;;;2.80;99.90;;;;;;5094871;28;20447;-68
2021/01/25 05:45:42;;;;;;;7.03;5.70;;;2.80;99.90;;;;;;5088460;28;20853;-68
2021/01/25 05:48:12;;;;;;;6.43;4.70;;;2.80;99.90;;;;;;5112546;28;20521;-69
2021/01/25 05:50:42;;;;;;;9.23;5.40;;;2.80;99.90;;;;;;5112232;27;20509;-69
2021/01/25 05:53:10;;;;;;;5.40;4.57;;;2.80;99.90;;;;;;5057325;28;20543;-69
2021/01/25 05:55:36;;;;;;;6.87;4.47;;;2.80;99.90;;;;;;5094400;27;20457;-68
2021/01/25 05:58:03;;;;;;;6.63;4.57;;;2.80;99.90;;;;;;5097681;28;20552;-68
2021/01/25 06:00:30;;;;;;;8.97;5.40;;;2.80;99.90;;;;;;5115524;27;20474;-69
2021/01/25 06:02:56;;;;;;;5.37;4.13;;;2.80;99.90;;;;;;5108646;28;20448;-69
2021/01/25 06:05:31;;;;;;;6.17;4.80;;;2.80;99.90;;;;;;5099397;28;20490;-69
2021/01/25 06:08:15;;;;;;;10.07;5.73;;;2.80;99.90;;;;;;5116357;28;20505;-69
2021/01/25 06:11:08;;;;;;;9.50;5.20;;;2.80;99.90;;;;;;5097927;28;20452;-67
2021/01/25 06:13:59;;;;;;;8.13;5.00;;;2.70;99.90;;;;;;5091033;27;20460;-70
2021/01/25 06:16:26;;;;;;;8.20;5.30;;;2.80;99.90;;;;;;5068818;28;20453;-70
2021/01/25 06:19:00;;;;;;;7.97;4.90;;;2.80;99.90;;;;;;5079940;28;20436;-70
2021/01/25 06:21:30;;;;;;;8.07;5.10;;;2.80;99.90;;;;;;5117155;28;20539;-66
2021/01/25 06:24:01;;;;;;;6.33;4.37;;;2.80;99.90;;;;;;5096265;28;20451;-69
2021/01/25 06:26:27;;;;;;;6.57;5.07;;;2.80;99.90;;;;;;5088963;28;20511;-69
2021/01/25 06:28:53;;;;;;;8.30;5.47;;;2.80;99.90;;;;;;5098221;27;20449;-70
2021/01/25 06:31:22;;;;;;;9.40;5.20;;;2.80;99.90;;;;;;5098318;28;20490;-70
2021/01/25 06:33:51;;;;;;;8.90;5.90;;;2.80;99.90;;;;;;5113654;28;20456;-69
2021/01/25 06:36:18;;;;;;;7.13;6.00;;;2.80;99.90;;;;;;5079602;28;20464;-69
2021/01/25 06:38:47;;;;;;;5.87;5.30;;;2.80;99.90;;;;;;5090695;27;20466;-66
2021/01/25 06:41:14;;;;;;;6.20;4.67;;;2.80;99.90;;;;;;5095155;28;20814;-69
2021/01/25 06:43:45;;;;;;;6.27;5.20;;;2.80;99.90;;;;;;5113414;28;20602;-69
2021/01/25 06:46:17;;;;;;;10.20;6.00;;;2.80;99.90;;;;;;5063313;28;21061;-69
2021/01/25 06:48:47;;;;;;;6.60;5.33;;;2.80;99.90;;;;;;5112122;27;20470;-69
2021/01/25 06:51:14;;;;;;;10.07;6.27;;;2.80;99.90;;;;;;5098691;28;20453;-68
2021/01/25 06:53:42;;;;;;;11.37;6.40;;;2.80;99.90;;;;;;5081200;28;20463;-69
2021/01/25 06:56:08;;;;;;;7.90;5.53;;;2.80;99.90;;;;;;5116053;28;20468;-69
2021/01/25 06:58:36;;;;;;;8.27;6.00;;;2.80;99.90;;;;;;5096034;28;20461;-69
2021/01/25 07:01:08;;;;;;;7.00;4.63;;;2.80;99.90;;;;;;5092750;28;20214;-69
2021/01/25 07:03:45;;;;;;;9.13;5.40;;;2.80;99.90;;;;;;5076955;28;20466;-69
2021/01/25 07:06:15;;;;;;;8.03;5.37;;;2.80;99.90;;;;;;5099214;28;20464;-69
2021/01/25 07:08:54;;;;;;;8.20;5.30;;;2.80;99.90;;;;;;5098535;27;20491;-69
2021/01/25 07:11:22;;;;;;;8.40;5.70;;;2.80;99.90;;;;;;5095622;28;20459;-68
2021/01/25 07:13:49;;;;;;;10.77;5.33;;;2.80;99.90;;;;;;5115906;27;20483;-68
2021/01/25 07:16:16;;;;;;;7.33;5.77;;;2.80;99.90;;;;;;5117551;28;20546;-67
2021/01/25 07:18:43;;;;;;;8.73;6.07;;;2.80;99.90;;;;;;5098559;27;20453;-69
2021/01/25 07:21:13;;;;;;;16.87;7.70;;;2.80;99.90;;;;;;5117156;28;20470;-69
2021/01/25 07:23:44;;;;;;;16.67;10.57;;;2.80;99.90;;;;;;5094078;28;20450;-69
2021/01/25 07:26:15;;;;;;;14.70;9.50;;;2.80;99.90;;;;;;5110683;28;20546;-67
2021/01/25 07:28:42;;;;;;;17.07;9.97;;;2.80;99.90;;;;;;5099712;27;20467;-68
2021/01/25 07:31:09;;;;;;;15.73;10.30;;;2.80;99.90;;;;;;5097940;28;20464;-70
2021/01/25 07:33:36;;;;;;;15.00;8.03;;;2.80;99.90;;;;;;5114723;28;20452;-68
2021/01/25 07:36:02;;;;;;;12.00;7.23;;;2.80;99.90;;;;;;5096440;28;20480;-70
2021/01/25 07:38:28;;;;;;;10.20;7.27;;;2.80;99.90;;;;;;5115110;28;20837;-70
2021/01/25 07:40:59;;;;;;;7.30;5.60;;;2.80;99.90;;;;;;5114009;27;20979;-70
2021/01/25 07:43:29;;;;;;;9.33;5.30;;;2.80;99.90;;;;;;5114784;28;20512;-69
2021/01/25 07:46:08;;;;;;;8.93;6.03;;;2.80;99.90;;;;;;5114284;28;20449;-70
2021/01/25 07:48:35;;;;;;;8.67;5.30;;;2.80;99.90;;;;;;5091937;27;20463;-70
2021/01/25 07:51:01;;;;;;;14.47;8.57;;;2.80;99.90;;;;;;5115424;28;20488;-67
2021/01/25 07:53:34;;;;;;;12.87;7.60;;;2.80;99.90;;;;;;5081984;28;20455;-67
2021/01/25 07:56:00;;;;;;;11.43;7.07;;;2.80;99.90;;;;;;5114483;28;20218;-68
2021/01/25 07:58:25;;;;;;;10.20;6.40;;;2.80;99.90;;;;;;5115295;28;20491;-68
2021/01/25 08:00:51;;;;;;;13.07;7.67;;;2.80;99.90;;;;;;5064375;27;20226;-70
2021/01/25 08:03:23;;;;;;;12.53;7.00;;;2.90;99.90;;;;;;5099100;28;20216;-69
2021/01/25 08:05:53;;;;;;;13.13;7.47;;;2.90;99.90;;;;;;5115360;28;20226;-70
2021/01/25 08:08:20;;;;;;;19.03;8.30;;;2.90;99.90;;;;;;5098828;28;20460;-70
2021/01/25 08:10:48;;;;;;;17.37;9.30;;;2.90;99.90;;;;;;5097122;27;20474;-69
2021/01/25 08:13:16;;;;;;;15.67;8.47;;;2.90;99.90;;;;;;5096868;28;20522;-69
2021/01/25 08:16:01;;;;;;;7.60;6.33;;;2.90;99.90;;;;;;5117146;27;20444;-70
2021/01/25 08:18:53;;;;;;;14.03;8.50;;;2.90;99.90;;;;;;5114184;28;20485;-69
2021/01/25 08:21:24;;;;;;;14.00;8.43;;;2.90;99.90;;;;;;5075566;28;20484;-68
2021/01/25 08:23:52;;;;;;;13.33;7.73;;;2.90;99.90;;;;;;5094796;28;20453;-68
2021/01/25 08:26:26;;;;;;;11.77;6.47;;;2.90;99.90;;;;;;5100502;28;20482;-68
2021/01/25 08:28:59;;;;;;;11.03;7.57;;;2.90;99.90;;;;;;5093881;28;20486;-68
2021/01/25 08:31:48;;;;;;;12.90;7.77;;;2.90;99.90;;;;;;5094620;28;20476;-67
2021/01/25 08:34:32;;;;;;;11.13;7.33;;;2.90;99.90;;;;;;5079021;28;20556;-69
2021/01/25 08:37:12;;;;;;;8.47;7.47;;;2.90;99.90;;;;;;5076654;28;20460;-70
2021/01/25 08:39:42;;;;;;;11.90;7.73;;;2.90;99.90;;;;;;5070150;28;20453;-69
2021/01/25 08:42:15;;;;;;;13.20;7.63;;;2.90;99.90;;;;;;5092722;28;20456;-68
2021/01/25 08:44:47;;;;;;;8.67;6.80;;;2.90;99.90;;;;;;5092389;28;20473;-70
2021/01/25 08:47:16;;;;;;;10.33;7.20;;;2.90;99.90;;;;;;5095995;28;20471;-69
2021/01/25 08:49:44;;;;;;;9.63;7.10;;;2.90;99.90;;;;;;5110822;27;20590;-67
2021/01/25 08:52:23;;;;;;;14.30;6.43;;;2.90;99.90;;;;;;5115161;28;20974;-69
2021/01/25 08:54:49;;;;;;;9.20;6.87;;;3.00;99.90;;;;;;5114768;28;20476;-68
2021/01/25 08:57:21;;;;;;;7.83;6.33;;;2.90;99.90;;;;;;5099194;28;20486;-69
2021/01/25 08:59:47;;;;;;;8.60;6.10;;;3.00;99.90;;;;;;5114186;27;20218;-69
2021/01/25 09:02:32;;;;;;;7.90;5.70;;;2.90;99.90;;;;;;5097304;28;20710;-68
2021/01/25 09:04:59;;;;;;;11.93;6.90;;;3.00;99.90;;;;;;5080196;28;20482;-69
2021/01/25 09:07:24;;;;;;;9.43;6.57;;;3.00;99.90;;;;;;5096763;28;20452;-69
2021/01/25 09:09:50;;;;;;;14.30;8.33;;;3.00;99.90;;;;;;5071364;28;20487;-70
2021/01/25 09:12:18;;;;;;;12.87;7.90;;;3.00;99.90;;;;;;5110927;28;20606;-69
2021/01/25 09:14:44;;;;;;;15.17;8.90;;;3.00;99.90;;;;;;5100598;27;20465;-68
2021/01/25 09:17:11;;;;;;;13.90;8.67;;;3.00;99.90;;;;;;5100134;28;20456;-68
2021/01/25 09:19:38;;;;;;;13.33;8.00;;;3.00;99.90;;;;;;5066695;27;20229;-69
2021/01/25 09:22:09;;;;;;;15.53;8.30;;;3.00;99.90;;;;;;5101018;28;20459;-67
2021/01/25 09:24:35;;;;;;;16.90;9.97;;;3.00;99.90;;;;;;5101359;27;20475;-68
2021/01/25 09:27:01;;;;;;;12.37;8.60;;;3.00;99.90;;;;;;5098787;28;20501;-69
2021/01/25 09:29:27;;;;;;;10.10;7.47;;;3.00;99.90;;;;;;5100075;28;20458;-67
2021/01/25 09:31:53;;;;;;;13.70;8.50;;;3.00;99.90;;;;;;5097307;28;20447;-68
2021/01/25 09:34:18;;;;;;;14.97;8.20;;;3.00;99.90;;;;;;5114145;28;20276;-68
2021/01/25 09:36:44;;;;;;;15.57;8.23;;;3.00;99.90;;;;;;5097415;27;20891;-69
2021/01/25 09:39:12;;;;;;;13.50;8.27;;;3.00;99.90;;;;;;5097923;28;20225;-68
2021/01/25 09:41:39;;;;;;;14.30;9.00;;;3.00;99.90;;;;;;5082183;28;20218;-70
2021/01/25 09:44:05;;;;;;;14.40;8.47;;;3.00;99.90;;;;;;5076418;28;20442;-68
2021/01/25 09:46:31;;;;;;;14.53;8.23;;;3.00;99.90;;;;;;5091439;28;20482;-69
2021/01/25 09:48:56;;;;;;;12.23;7.97;;;3.00;99.90;;;;;;5090545;28;20459;-68
2021/01/25 09:51:22;;;;;;;12.80;9.00;;;3.00;99.90;;;;;;5060742;28;20302;-67
2021/01/25 09:53:48;;;;;;;8.87;7.87;;;3.00;99.90;;;;;;5111956;27;20383;-70
2021/01/25 09:56:13;;;;;;;12.03;8.10;;;3.00;99.90;;;;;;5095738;28;20222;-69
2021/01/25 09:58:39;;;;;;;13.80;8.40;;;3.00;99.90;;;;;;5090679;28;20222;-69
2021/01/25 10:01:05;;;;;;;12.47;8.80;;;3.00;99.90;;;;;;5075948;28;20219;-67
2021/01/25 10:03:32;;;;;;;12.77;9.40;;;3.00;99.90;;;;;;5095916;28;20263;-69
2021/01/25 10:05:58;;;;;;;12.67;8.70;;;3.00;99.90;;;;;;5108551;28;20454;-69
2021/01/25 10:08:23;;;;;;;13.70;8.90;;;3.00;99.90;;;;;;5094890;28;20480;-69
2021/01/25 10:10:49;;;;;;;15.40;10.10;;;3.10;99.90;;;;;;5108038;28;20242;-68
2021/01/25 10:13:15;;;;;;;11.07;7.93;;;3.10;99.90;;;;;;5094651;28;20230;-68
2021/01/25 10:15:41;;;;;;;10.17;6.90;;;3.10;99.90;;;;;;5096951;27;20232;-69
2021/01/25 10:18:07;;;;;;;11.13;7.70;;;3.10;99.90;;;;;;5090605;27;20212;-68
2021/01/25 10:20:33;;;;;;;13.73;9.27;;;3.10;99.90;;;;;;5090193;28;20284;-70
2021/01/25 10:22:58;;;;;;;13.70;8.67;;;3.10;99.90;;;;;;5088607;28;20449;-69
2021/01/25 10:25:24;;;;;;;18.57;10.10;;;3.00;99.90;;;;;;5094184;28;20471;-68
2021/01/25 10:27:50;;;;;;;12.83;9.43;;;3.10;99.90;;;;;;5097156;27;20252;-69
2021/01/25 10:30:19;;;;;;;15.43;9.80;;;3.10;99.90;;;;;;5095510;28;20459;-67
2021/01/25 10:32:44;;;;;;;18.60;9.93;;;3.10;99.90;;;;;;5116467;27;20285;-67
2021/01/25 10:35:12;;;;;;;14.10;10.50;;;3.10;99.90;;;;;;5106023;28;20520;-66
2021/01/25 10:37:38;;;;;;;14.93;9.30;;;3.10;99.90;;;;;;5089587;27;20457;-69
2021/01/25 10:40:05;;;;;;;17.47;9.50;;;3.10;99.90;;;;;;5106689;28;20534;-67
2021/01/25 10:42:31;;;;;;;11.57;7.77;;;3.10;99.90;;;;;;5095924;28;20459;-69
2021/01/25 10:44:57;;;;;;;14.33;9.00;;;3.10;99.90;;;;;;5097879;28;20873;-68
2021/01/25 10:47:27;;;;;;;14.97;9.93;;;3.10;99.90;;;;;;5096643;28;20502;-66
2021/01/25 10:49:52;;;;;;;14.40;9.43;;;3.10;99.90;;;;;;5079149;28;20314;-65
2021/01/25 10:52:18;;;;;;;14.13;10.20;;;3.00;99.90;;;;;;5099545;28;20478;-68
2021/01/25 10:54:44;;;;;;;12.53;8.20;;;3.10;99.90;;;;;;5099251;28;20240;-68
2021/01/25 10:57:10;;;;;;;14.10;9.10;;;3.10;99.90;;;;;;5113843;28;20249;-68
2021/01/25 10:59:36;;;;;;;11.83;7.97;;;3.10;99.90;;;;;;5082233;28;20467;-68
2021/01/25 11:02:04;;;;;;;10.13;7.77;;;3.10;99.90;;;;;;5115683;28;20269;-69
2021/01/25 11:04:30;;;;;;;13.77;7.90;;;3.20;99.90;;;;;;5099598;28;20455;-68
2021/01/25 11:06:56;;;;;;;11.30;6.30;;;3.20;99.90;;;;;;5097939;27;20467;-69
2021/01/25 11:09:21;;;;;;;10.53;6.40;;;3.20;99.90;;;;;;5098882;28;20456;-67
2021/01/25 11:11:47;;;;;;;10.27;5.77;;;3.20;99.90;;;;;;5073402;28;20490;-67
2021/01/25 11:14:13;;;;;;;6.90;5.90;;;3.20;99.90;;;;;;5067417;28;20546;-67
2021/01/25 11:16:38;;;;;;;9.57;5.83;;;3.20;99.90;;;;;;5073985;28;20728;-67
2021/01/25 11:19:04;;;;;;;11.83;6.10;;;3.20;99.90;;;;;;5050570;28;20218;-67
2021/01/25 11:21:30;;;;;;;9.00;6.30;;;3.20;99.90;;;;;;5100052;28;20672;-69
2021/01/25 11:23:55;;;;;;;12.00;6.80;;;3.20;99.90;;;;;;5094082;28;20632;-67
2021/01/25 11:26:23;;;;;;;10.87;5.57;;;3.20;99.90;;;;;;5059192;28;20218;-66
2021/01/25 11:28:49;;;;;;;10.97;6.90;;;3.20;99.90;;;;;;5088375;28;20227;-69
2021/01/25 11:31:15;;;;;;;8.80;5.70;;;3.20;99.90;;;;;;5068979;28;20464;-69
2021/01/25 11:33:40;;;;;;;15.73;5.97;;;3.20;99.90;;;;;;5080473;28;20222;-70
2021/01/25 11:36:07;;;;;;;8.90;5.00;;;3.20;99.90;;;;;;5076131;28;20218;-70
2021/01/25 11:38:32;;;;;;;12.87;6.50;;;3.20;99.90;;;;;;5097679;27;20233;-70
2021/01/25 11:40:58;;;;;;;13.60;7.40;;;3.20;99.90;;;;;;5093544;28;20441;-70
2021/01/25 11:43:24;;;;;;;23.57;12.70;;;3.30;99.90;;;;;;5085638;28;20307;-68
2021/01/25 11:45:50;;;;;;;18.63;11.60;;;3.30;99.90;;;;;;5080345;28;20504;-67
2021/01/25 11:48:20;;;;;;;24.87;13.93;;;3.30;99.90;;;;;;5104982;28;20228;-69
2021/01/25 11:50:47;;;;;;;21.87;11.30;;;3.20;99.90;;;;;;5099153;28;20491;-67
2021/01/25 11:53:14;;;;;;;21.77;11.47;;;3.20;99.90;;;;;;5076946;28;20487;-67
2021/01/25 11:55:41;;;;;;;20.67;10.30;;;3.30;99.90;;;;;;5076365;27;20477;-67
2021/01/25 11:58:08;;;;;;;19.53;10.33;;;3.30;99.90;;;;;;5095912;28;20528;-68
2021/01/25 12:00:33;;;;;;;17.77;9.10;;;3.30;99.90;;;;;;5082737;28;20460;-68
2021/01/25 12:02:59;;;;;;;18.20;9.60;;;3.30;99.90;;;;;;5093898;28;21000;-67
2021/01/25 12:05:25;;;;;;;16.03;8.13;;;3.30;99.90;;;;;;5068535;28;20268;-69
2021/01/25 12:07:51;;;;;;;14.00;7.30;;;3.30;99.90;;;;;;5068807;27;20237;-67
2021/01/25 12:10:16;;;;;;;14.40;7.77;;;3.40;99.90;;;;;;5085366;28;20308;-68
2021/01/25 12:12:42;;;;;;;12.07;6.60;;;3.40;99.90;;;;;;5077342;28;20324;-66
2021/01/25 12:15:08;;;;;;;15.90;7.30;;;3.40;99.90;;;;;;5099434;28;20222;-67
2021/01/25 12:17:34;;;;;;;12.80;7.10;;;3.40;99.90;;;;;;5097015;28;20246;-67
2021/01/25 12:20:00;;;;;;;10.50;6.20;;;3.50;99.90;;;;;;5078906;28;20476;-68
2021/01/25 12:22:25;;;;;;;16.53;8.67;;;3.40;99.90;;;;;;5080864;28;20214;-67
2021/01/25 12:24:51;;;;;;;16.50;8.23;;;3.50;99.90;;;;;;5063405;27;20222;-67
2021/01/25 12:27:17;;;;;;;21.97;9.60;;;3.50;99.90;;;;;;5063396;28;20305;-67
2021/01/25 12:29:43;;;;;;;12.80;6.93;;;3.50;99.90;;;;;;5069660;27;20224;-67
2021/01/25 12:32:09;;;;;;;17.77;12.37;;;3.50;99.90;;;;;;5080069;28;20211;-67
2021/01/25 12:34:36;;;;;;;30.83;17.93;;;3.50;99.90;;;;;;5069532;27;20243;-67
2021/01/25 12:37:02;;;;;;;21.53;11.50;;;3.50;99.90;;;;;;5066066;28;20235;-69
2021/01/25 12:39:28;;;;;;;21.17;10.73;;;3.50;99.90;;;;;;5083025;28;20473;-68
2021/01/25 12:41:54;;;;;;;19.60;11.43;;;3.50;99.90;;;;;;5099413;28;20464;-67
2021/01/25 12:44:20;;;;;;;15.57;9.70;;;3.50;99.90;;;;;;5073489;28;20214;-67
2021/01/25 12:46:49;;;;;;;13.73;8.97;;;3.60;99.90;;;;;;5078066;28;20483;-67
2021/01/25 12:49:16;;;;;;;27.87;13.90;;;3.60;99.90;;;;;;5059830;28;20222;-67
2021/01/25 12:51:41;;;;;;;54.30;25.73;;;3.60;99.90;;;;;;5090452;28;20893;-67
2021/01/25 12:54:07;;;;;;;47.50;25.47;;;3.60;99.90;;;;;;5074854;28;20484;-67
2021/01/25 12:56:33;;;;;;;26.90;15.43;;;3.50;99.90;;;;;;5092067;27;20226;-67